createdAt,value
2023-03-06T00:00:29.890Z,99777.78
2023-03-06T00:02:56.719Z,99773.47
2023-03-06T00:05:23.217Z,99777.88
2023-03-06T00:07:49.701Z,99771.72
2023-03-06T00:10:24.154Z,99765.44
2023-03-06T00:12:59.014Z,99772.50
2023-03-06T00:15:26.487Z,99765.59
2023-03-06T00:17:53.543Z,99760.44
2023-03-06T00:20:23.589Z,99755.91
2023-03-06T00:22:52.587Z,99761.84
2023-03-06T00:25:21.100Z,99755.03
2023-03-06T00:27:48.328Z,99755.06
2023-03-06T00:30:17.729Z,99750.88
2023-03-06T00:32:44.295Z,99746.19
2023-03-06T00:35:12.041Z,99748.94
2023-03-06T00:37:38.875Z,99750.78
2023-03-06T00:40:07.408Z,99746.97
2023-03-06T00:42:33.810Z,99746.00
2023-03-06T00:45:00.166Z,99748.56
2023-03-06T00:47:26.585Z,99737.34
2023-03-06T00:49:52.939Z,99736.75
2023-03-06T00:52:19.501Z,99726.31
2023-03-06T00:54:45.871Z,99727.22
2023-03-06T00:57:12.153Z,99725.31
2023-03-06T00:59:38.474Z,99714.78
2023-03-06T01:02:05.110Z,99714.84
2023-03-06T01:04:31.788Z,99712.25
2023-03-06T01:06:58.233Z,99705.44
2023-03-06T01:09:24.773Z,99708.16
2023-03-06T01:11:51.146Z,99701.09
2023-03-06T01:14:19.281Z,99697.59
2023-03-06T01:16:47.038Z,99700.16
2023-03-06T01:19:13.770Z,99694.78
2023-03-06T01:21:40.113Z,99687.69
2023-03-06T01:24:06.625Z,99679.09
2023-03-06T01:26:33.450Z,99683.44
2023-03-06T01:29:00.222Z,99666.84
2023-03-06T01:31:26.702Z,99675.53
2023-03-06T01:33:53.132Z,99665.84
2023-03-06T01:36:19.566Z,99658.72
2023-03-06T01:38:46.066Z,99663.19
2023-03-06T01:41:15.653Z,99664.88
2023-03-06T01:43:45.260Z,99664.00
2023-03-06T01:46:44.808Z,99664.00
2023-03-06T01:49:19.826Z,99661.38
2023-03-06T01:51:51.885Z,99656.84
2023-03-06T01:54:26.532Z,99649.03
2023-03-06T01:56:58.895Z,99648.13
2023-03-06T01:59:26.930Z,99647.16
2023-03-06T02:01:54.735Z,99641.88
2023-03-06T02:04:21.164Z,99640.25
2023-03-06T02:06:48.065Z,99632.69
2023-03-06T02:09:14.972Z,99638.53
2023-03-06T02:11:43.942Z,99634.03
2023-03-06T02:14:17.930Z,99633.09
2023-03-06T02:16:44.525Z,99626.97
2023-03-06T02:19:33.975Z,99628.66
2023-03-06T02:22:00.547Z,99621.56
2023-03-06T02:24:32.277Z,99622.34
2023-03-06T02:27:00.733Z,99618.94
2023-03-06T02:29:29.304Z,99614.38
2023-03-06T02:31:56.489Z,99606.47
2023-03-06T02:34:22.752Z,99613.38
2023-03-06T02:36:52.056Z,99615.16
2023-03-06T02:39:21.997Z,99602.84
2023-03-06T02:41:48.534Z,99600.31
2023-03-06T02:44:14.942Z,99609.13
2023-03-06T02:46:41.273Z,99603.81
2023-03-06T02:49:07.647Z,99604.66
2023-03-06T02:51:34.204Z,99592.41
2023-03-06T02:54:00.544Z,99590.66
2023-03-06T02:56:27.056Z,99595.34
2023-03-06T02:58:53.668Z,99590.13
2023-03-06T03:01:20.046Z,99592.75
2023-03-06T03:03:46.413Z,99586.72
2023-03-06T03:06:12.709Z,99594.59
2023-03-06T03:08:39.090Z,99590.25
2023-03-06T03:11:05.828Z,99585.91
2023-03-06T03:13:32.787Z,99582.28
2023-03-06T03:16:03.175Z,99585.66
2023-03-06T03:18:29.735Z,99592.03
2023-03-06T03:20:56.312Z,99585.03
2023-03-06T03:23:23.175Z,99584.09
2023-03-06T03:25:49.818Z,99578.81
2023-03-06T03:28:16.614Z,99576.16
2023-03-06T03:30:43.597Z,99584.00
2023-03-06T03:33:10.307Z,99578.81
2023-03-06T03:35:37.153Z,99583.97
2023-03-06T03:38:03.559Z,99581.22
2023-03-06T03:40:29.882Z,99568.19
2023-03-06T03:42:56.169Z,99576.63
2023-03-06T03:45:22.462Z,99576.59
2023-03-06T03:47:48.829Z,99571.22
2023-03-06T03:50:15.200Z,99572.06
2023-03-06T03:52:41.510Z,99563.97
2023-03-06T03:55:08.357Z,99562.28
2023-03-06T03:57:34.645Z,99557.97
2023-03-06T04:00:00.912Z,99560.63
2023-03-06T04:02:27.270Z,99552.69
2023-03-06T04:04:53.790Z,99554.34
2023-03-06T04:07:20.187Z,99548.09
2023-03-06T04:09:47.302Z,99551.63
2023-03-06T04:12:13.806Z,99550.63
2023-03-06T04:14:40.096Z,99542.88
2023-03-06T04:17:06.468Z,99541.09
2023-03-06T04:19:32.812Z,99547.22
2023-03-06T04:21:59.156Z,99538.56
2023-03-06T04:24:25.516Z,99535.88
2023-03-06T04:26:51.882Z,99533.19
2023-03-06T04:29:18.339Z,99531.44
2023-03-06T04:31:44.777Z,99530.53
2023-03-06T04:34:11.118Z,99531.59
2023-03-06T04:36:38.312Z,99531.56
2023-03-06T04:39:04.852Z,99521.03
2023-03-06T04:41:31.209Z,99517.56
2023-03-06T04:43:57.554Z,99520.28
2023-03-06T04:46:23.864Z,99522.88
2023-03-06T04:48:50.149Z,99529.00
2023-03-06T04:51:16.690Z,99502.72
2023-03-06T04:53:43.146Z,99515.00
2023-03-06T04:56:09.728Z,99513.97
2023-03-06T04:58:36.333Z,99507.84
2023-03-06T05:01:03.035Z,99507.91
2023-03-06T05:03:29.517Z,99509.72
2023-03-06T05:05:55.924Z,99501.84
2023-03-06T05:08:23.600Z,99494.75
2023-03-06T05:10:58.455Z,99501.84
2023-03-06T05:13:25.671Z,99488.84
2023-03-06T05:15:52.035Z,99495.84
2023-03-06T05:18:19.073Z,99481.09
2023-03-06T05:20:45.788Z,99487.03
2023-03-06T05:23:12.497Z,99480.88
2023-03-06T05:25:40.423Z,99473.22
2023-03-06T05:28:07.811Z,99481.94
2023-03-06T05:30:34.703Z,99479.28
2023-03-06T05:33:01.085Z,99478.41
2023-03-06T05:35:28.090Z,99481.94
2023-03-06T05:37:54.674Z,99491.75
2023-03-06T05:40:21.066Z,99494.16
2023-03-06T05:42:47.420Z,99495.81
2023-03-06T05:45:13.853Z,99493.31
2023-03-06T05:47:40.226Z,99494.03
2023-03-06T05:50:08.226Z,99494.00
2023-03-06T05:52:34.558Z,99493.84
2023-03-06T05:55:00.971Z,99488.91
2023-03-06T05:57:27.334Z,99486.91
2023-03-06T05:59:53.680Z,99485.34
2023-03-06T06:02:20.061Z,99474.91
2023-03-06T06:04:46.490Z,99480.78
2023-03-06T06:07:14.934Z,99474.72
2023-03-06T06:09:43.307Z,99479.25
2023-03-06T06:12:09.748Z,99478.09
2023-03-06T06:14:36.084Z,99483.22
2023-03-06T06:17:02.483Z,99482.59
2023-03-06T06:19:30.119Z,99484.94
2023-03-06T06:21:56.894Z,99486.59
2023-03-06T06:24:25.645Z,99485.56
2023-03-06T06:26:53.706Z,99485.50
2023-03-06T06:29:20.790Z,99482.84
2023-03-06T06:31:47.732Z,99482.91
2023-03-06T06:34:14.254Z,99491.72
2023-03-06T06:36:41.317Z,99487.47
2023-03-06T06:39:09.086Z,99496.34
2023-03-06T06:41:53.526Z,99497.53
2023-03-06T06:44:21.897Z,99501.22
2023-03-06T06:49:36.568Z,99494.72
2023-03-06T06:52:03.455Z,99492.47
2023-03-06T06:54:29.776Z,99493.50
2023-03-06T06:56:56.109Z,99494.47
2023-03-06T06:59:25.532Z,99499.88
2023-03-06T07:01:52.640Z,99499.19
2023-03-06T07:04:19.611Z,99498.72
2023-03-06T07:06:46.037Z,99495.38
2023-03-06T07:09:13.125Z,99499.19
2023-03-06T07:11:40.067Z,99495.13
2023-03-06T07:14:06.386Z,99494.38
2023-03-06T07:16:32.806Z,99497.28
2023-03-06T07:18:59.155Z,99491.69
2023-03-06T07:21:25.447Z,99490.19
2023-03-06T07:23:51.817Z,99495.16
2023-03-06T07:26:20.633Z,99495.94
2023-03-06T07:28:52.613Z,99495.06
2023-03-06T07:31:25.128Z,99506.63
2023-03-06T07:33:52.979Z,99504.19
2023-03-06T07:36:20.400Z,99501.31
2023-03-06T07:38:46.784Z,99510.97
2023-03-06T07:41:16.229Z,99503.84
2023-03-06T07:43:44.174Z,99511.78
2023-03-06T07:46:11.951Z,99508.59
2023-03-06T07:48:38.961Z,99500.63
2023-03-06T07:51:08.228Z,99506.22
2023-03-06T07:53:35.509Z,99500.53
2023-03-06T07:56:08.430Z,99503.34
2023-03-06T07:58:39.471Z,99506.47
2023-03-06T08:01:09.580Z,99517.28
2023-03-06T08:03:36.020Z,99518.78
2023-03-06T08:06:07.572Z,99509.53
2023-03-06T08:08:35.456Z,99509.53
2023-03-06T08:11:01.986Z,99509.50
2023-03-06T08:13:28.437Z,99516.09
2023-03-06T08:15:56.158Z,99512.03
2023-03-06T08:18:22.584Z,99516.13
2023-03-06T08:20:48.906Z,99514.84
2023-03-06T08:23:15.260Z,99517.13
2023-03-06T08:25:41.625Z,99520.31
2023-03-06T08:28:07.995Z,99522.97
2023-03-06T08:30:34.303Z,99520.66
2023-03-06T08:33:01.234Z,99521.59
2023-03-06T08:35:27.530Z,99530.97
2023-03-06T08:37:53.820Z,99524.13
2023-03-06T08:40:20.167Z,99535.47
2023-03-06T08:42:48.000Z,99527.88
2023-03-06T08:45:14.379Z,99533.06
2023-03-06T08:47:40.973Z,99529.53
2023-03-06T08:50:07.612Z,99527.69
2023-03-06T08:52:33.938Z,99527.97
2023-03-06T08:55:03.347Z,99527.31
2023-03-06T08:57:30.454Z,99531.94
2023-03-06T08:59:56.915Z,99528.50
2023-03-06T09:02:23.341Z,99532.91
2023-03-06T09:04:49.789Z,99527.53
2023-03-06T09:07:16.189Z,99532.13
2023-03-06T09:09:42.606Z,99527.81
2023-03-06T09:12:08.954Z,99523.09
2023-03-06T09:14:35.285Z,99538.41
2023-03-06T09:17:01.651Z,99540.09
2023-03-06T09:19:27.942Z,99527.13
2023-03-06T09:21:54.407Z,99542.13
2023-03-06T09:24:20.717Z,99541.78
2023-03-06T09:26:48.369Z,99542.84
2023-03-06T09:29:17.376Z,99539.41
2023-03-06T09:31:44.865Z,99541.31
2023-03-06T09:34:11.265Z,99539.78
2023-03-06T09:36:54.943Z,99534.69
2023-03-06T09:39:22.725Z,99541.72
2023-03-06T09:41:50.748Z,99543.94
2023-03-06T09:44:21.352Z,99545.38
2023-03-06T09:47:07.026Z,99536.63
2023-03-06T09:49:51.943Z,99532.97
2023-03-06T09:52:29.914Z,99536.78
2023-03-06T09:55:02.889Z,99535.75
2023-03-06T09:57:35.180Z,99535.13
2023-03-06T10:00:07.111Z,99535.53
2023-03-06T10:02:52.103Z,99540.09
2023-03-06T10:05:23.031Z,99531.41
2023-03-06T10:07:56.824Z,99532.59
2023-03-06T10:10:26.861Z,99527.13
2023-03-06T10:13:06.299Z,99529.16
2023-03-06T10:15:35.955Z,99535.34
2023-03-06T10:18:03.373Z,99529.88
2023-03-06T10:20:51.906Z,99530.44
2023-03-06T10:23:42.079Z,99526.63
2023-03-06T10:26:15.563Z,99532.00
2023-03-06T10:28:51.566Z,99520.34
2023-03-06T10:31:23.334Z,99522.22
2023-03-06T10:33:53.977Z,99525.22
2023-03-06T10:36:23.439Z,99516.63
2023-03-06T10:38:49.792Z,99510.50
2023-03-06T10:41:30.078Z,99515.50
2023-03-06T10:44:05.388Z,99525.72
2023-03-06T10:46:41.694Z,99520.13
2023-03-06T10:49:26.111Z,99523.66
2023-03-06T10:51:58.294Z,99511.66
2023-03-06T10:54:24.763Z,99524.16
2023-03-06T10:56:51.173Z,99511.28
2023-03-06T10:59:28.072Z,99511.22
2023-03-06T11:01:57.180Z,99509.56
2023-03-06T11:04:33.831Z,99518.50
2023-03-06T11:07:15.285Z,99510.63
2023-03-06T11:09:58.667Z,99513.91
2023-03-06T11:12:34.472Z,99505.09
2023-03-06T11:15:07.166Z,99516.91
2023-03-06T11:17:47.457Z,99511.66
2023-03-06T11:20:51.443Z,99509.94
2023-03-06T11:23:22.832Z,99516.03
2023-03-06T11:26:16.906Z,99505.50
2023-03-06T11:29:06.641Z,99502.97
2023-03-06T11:31:37.640Z,99503.84
2023-03-06T11:34:14.190Z,99492.31
2023-03-06T11:37:05.532Z,99495.59
2023-03-06T11:39:39.342Z,99490.28
2023-03-06T11:42:28.076Z,99482.34
2023-03-06T11:45:10.076Z,99490.97
2023-03-06T11:47:40.689Z,99483.00
2023-03-06T11:50:25.760Z,99480.34
2023-03-06T11:53:01.565Z,99482.78
2023-03-06T11:55:39.265Z,99473.91
2023-03-06T11:58:36.688Z,99474.75
2023-03-06T12:01:22.376Z,99473.78
2023-03-06T12:04:26.185Z,99466.59
2023-03-06T12:07:20.822Z,99465.81
2023-03-06T12:09:57.023Z,99456.22
2023-03-06T12:12:41.113Z,99450.28
2023-03-06T12:15:53.506Z,99446.75
2023-03-06T12:18:39.413Z,99448.66
2023-03-06T12:21:15.014Z,99450.22
2023-03-06T12:23:59.543Z,99450.13
2023-03-06T12:27:00.046Z,99439.25
2023-03-06T12:29:45.214Z,99446.75
2023-03-06T12:32:29.935Z,99444.00
2023-03-06T12:35:18.096Z,99443.44
2023-03-06T12:37:50.727Z,99434.34
2023-03-06T12:40:36.032Z,99430.88
2023-03-06T12:43:25.098Z,99431.19
2023-03-06T12:45:58.370Z,99421.25
2023-03-06T12:48:29.364Z,99419.75
2023-03-06T12:50:56.286Z,99427.72
2023-03-06T12:53:29.532Z,99421.66
2023-03-06T12:55:58.270Z,99417.22
2023-03-06T12:58:30.740Z,99419.88
2023-03-06T13:01:34.655Z,99413.72
2023-03-06T13:04:31.354Z,99409.38
2023-03-06T13:07:22.829Z,99409.34
2023-03-06T13:10:02.133Z,99410.22
2023-03-06T13:12:31.421Z,99408.50
2023-03-06T13:15:00.487Z,99404.78
2023-03-06T13:17:33.281Z,99396.88
2023-03-06T13:20:14.621Z,99390.72
2023-03-06T13:22:42.487Z,99400.38
2023-03-06T13:25:21.047Z,99389.81
2023-03-06T13:27:53.393Z,99392.59
2023-03-06T13:30:41.909Z,99402.28
2023-03-06T13:33:46.601Z,99398.56
2023-03-06T13:36:32.546Z,99397.53
2023-03-06T13:39:12.137Z,99394.19
2023-03-06T13:41:42.944Z,99401.19
2023-03-06T13:44:40.549Z,99385.34
2023-03-06T13:47:18.952Z,99387.78
2023-03-06T13:49:47.435Z,99381.59
2023-03-06T13:53:01.653Z,99378.03
2023-03-06T13:55:44.079Z,99379.75
2023-03-06T13:58:41.362Z,99369.16
2023-03-06T14:01:29.797Z,99381.44
2023-03-06T14:04:14.383Z,99366.44
2023-03-06T14:06:49.546Z,99365.50
2023-03-06T14:09:20.461Z,99368.06
2023-03-06T14:11:53.085Z,99369.00
2023-03-06T14:14:30.529Z,99355.84
2023-03-06T14:16:58.298Z,99355.03
2023-03-06T14:19:25.475Z,99362.91
2023-03-06T14:21:57.383Z,99362.97
2023-03-06T14:24:34.328Z,99357.72
2023-03-06T14:27:00.840Z,99356.09
2023-03-06T14:29:29.908Z,99355.19
2023-03-06T14:31:58.809Z,99346.41
2023-03-06T14:34:45.321Z,99342.78
2023-03-06T14:37:25.044Z,99341.00
2023-03-06T14:39:52.015Z,99347.16
2023-03-06T14:42:24.703Z,99345.25
2023-03-06T14:45:15.881Z,99354.94
2023-03-06T14:47:43.640Z,99353.13
2023-03-06T14:50:29.267Z,99347.84
2023-03-06T14:53:03.982Z,99345.19
2023-03-06T14:55:34.777Z,99347.88
2023-03-06T14:58:07.153Z,99347.84
2023-03-06T15:00:38.463Z,99343.34
2023-03-06T15:03:12.492Z,99348.56
2023-03-06T15:05:42.799Z,99346.78
2023-03-06T15:08:09.374Z,99348.50
2023-03-06T15:10:37.221Z,99350.22
2023-03-06T15:13:19.905Z,99348.34
2023-03-06T15:15:56.760Z,99358.72
2023-03-06T15:18:35.421Z,99350.84
2023-03-06T15:21:22.580Z,99354.34
2023-03-06T15:23:51.517Z,99351.63
2023-03-06T15:26:31.133Z,99353.31
2023-03-06T15:29:09.046Z,99349.78
2023-03-06T15:31:45.917Z,99347.00
2023-03-06T15:34:12.202Z,99348.69
2023-03-06T15:36:58.248Z,99344.22
2023-03-06T15:39:28.691Z,99359.06
2023-03-06T15:42:00.444Z,99355.56
2023-03-06T15:44:28.952Z,99348.34
2023-03-06T15:47:06.625Z,99354.34
2023-03-06T15:49:38.084Z,99347.28
2023-03-06T15:52:05.931Z,99349.03
2023-03-06T15:54:33.089Z,99351.59
2023-03-06T15:57:00.310Z,99350.66
2023-03-06T15:59:32.814Z,99353.34
2023-03-06T16:02:03.691Z,99348.94
2023-03-06T16:04:30.338Z,99349.75
2023-03-06T16:06:56.688Z,99354.97
2023-03-06T16:09:23.630Z,99345.25
2023-03-06T16:11:49.904Z,99355.72
2023-03-06T16:14:23.384Z,99357.53
2023-03-06T16:16:51.156Z,99347.00
2023-03-06T16:19:28.193Z,99359.28
2023-03-06T16:21:55.897Z,99356.63
2023-03-06T16:24:22.568Z,99362.69
2023-03-06T16:26:51.079Z,99360.03
2023-03-06T16:29:19.520Z,99363.59
2023-03-06T16:31:46.288Z,99361.94
2023-03-06T16:34:13.078Z,99352.28
2023-03-06T16:36:39.482Z,99359.31
2023-03-06T16:39:05.820Z,99365.41
2023-03-06T16:41:32.210Z,99361.88
2023-03-06T16:43:58.618Z,99362.63
2023-03-06T16:46:25.367Z,99359.88
2023-03-06T16:48:52.691Z,99359.84
2023-03-06T16:51:22.082Z,99356.31
2023-03-06T16:53:50.779Z,99362.44
2023-03-06T16:56:19.051Z,99372.94
2023-03-06T16:58:45.435Z,99365.69
2023-03-06T17:01:16.117Z,99373.56
2023-03-06T17:03:42.711Z,99372.50
2023-03-06T17:06:17.737Z,99371.66
2023-03-06T17:08:45.262Z,99374.13
2023-03-06T17:11:12.868Z,99373.97
2023-03-06T17:13:39.334Z,99365.94
2023-03-06T17:16:06.901Z,99383.34
2023-03-06T17:18:33.331Z,99379.56
2023-03-06T17:21:01.816Z,99378.47
2023-03-06T17:23:31.694Z,99379.25
2023-03-06T17:26:10.033Z,99365.72
2023-03-06T17:28:37.176Z,99379.59
2023-03-06T17:31:11.252Z,99384.69
2023-03-06T17:33:37.540Z,99380.88
2023-03-06T17:36:04.133Z,99386.03
2023-03-06T17:38:30.453Z,99388.50
2023-03-06T17:41:02.296Z,99394.63
2023-03-06T17:43:28.610Z,99389.53
2023-03-06T17:45:54.956Z,99391.13
2023-03-06T17:48:21.291Z,99389.09
2023-03-06T17:50:54.997Z,99397.63
2023-03-06T17:53:22.160Z,99402.69
2023-03-06T17:55:48.526Z,99393.88
2023-03-06T17:58:14.913Z,99400.59
2023-03-06T18:00:41.473Z,99402.91
2023-03-06T18:03:09.195Z,99403.69
2023-03-06T18:05:36.683Z,99404.28
2023-03-06T18:08:03.428Z,99400.34
2023-03-06T18:10:29.789Z,99405.69
2023-03-06T18:12:56.618Z,99412.38
2023-03-06T18:15:23.179Z,99415.97
2023-03-06T18:17:49.578Z,99416.69
2023-03-06T18:20:16.135Z,99412.16
2023-03-06T18:22:42.452Z,99411.22
2023-03-06T18:25:09.010Z,99411.88
2023-03-06T18:27:35.865Z,99411.66
2023-03-06T18:30:02.204Z,99405.78
2023-03-06T18:32:28.523Z,99407.47
2023-03-06T18:34:55.632Z,99403.44
2023-03-06T18:37:25.837Z,99402.59
2023-03-06T18:39:52.264Z,99403.88
2023-03-06T18:42:18.802Z,99405.69
2023-03-06T18:44:47.697Z,99405.66
2023-03-06T18:47:15.336Z,99398.56
2023-03-06T18:49:44.117Z,99407.97
2023-03-06T18:52:11.104Z,99406.84
2023-03-06T18:54:37.518Z,99399.34
2023-03-06T18:57:03.958Z,99402.50
2023-03-06T18:59:30.303Z,99399.28
2023-03-06T19:01:58.444Z,99398.34
2023-03-06T19:04:25.912Z,99403.50
2023-03-06T19:06:52.618Z,99395.84
2023-03-06T19:09:19.208Z,99396.63
2023-03-06T19:11:46.798Z,99397.44
2023-03-06T19:14:14.297Z,99390.44
2023-03-06T19:16:41.132Z,99398.41
2023-03-06T19:19:07.681Z,99394.91
2023-03-06T19:21:34.004Z,99399.00
2023-03-06T19:24:02.109Z,99398.59
2023-03-06T19:26:28.572Z,99404.16
2023-03-06T19:28:54.989Z,99408.97
2023-03-06T19:31:26.951Z,99401.97
2023-03-06T19:33:54.748Z,99411.97
2023-03-06T19:36:26.456Z,99404.47
2023-03-06T19:38:54.825Z,99401.81
2023-03-06T19:41:21.454Z,99401.91
2023-03-06T19:43:52.239Z,99400.16
2023-03-06T19:46:19.015Z,99390.41
2023-03-06T19:48:46.122Z,99398.75
2023-03-06T19:51:12.750Z,99387.41
2023-03-06T19:53:39.905Z,99389.19
2023-03-06T19:56:07.906Z,99373.84
2023-03-06T19:58:34.544Z,99383.22
2023-03-06T20:01:06.103Z,99382.88
2023-03-06T20:03:32.584Z,99375.25
2023-03-06T20:05:58.965Z,99368.91
2023-03-06T20:08:25.346Z,99368.75
2023-03-06T20:10:51.637Z,99371.84
2023-03-06T20:13:17.969Z,99366.63
2023-03-06T20:15:44.412Z,99372.38
2023-03-06T20:18:10.998Z,99366.75
2023-03-06T20:20:39.057Z,99374.78
2023-03-06T20:23:06.147Z,99373.09
2023-03-06T20:25:35.670Z,99371.38
2023-03-06T20:28:04.482Z,99367.38
2023-03-06T20:30:37.828Z,99363.69
2023-03-06T20:33:04.563Z,99375.47
2023-03-06T20:35:30.864Z,99371.69
2023-03-06T20:37:57.186Z,99374.44
2023-03-06T20:40:23.518Z,99369.38
2023-03-06T20:42:50.001Z,99367.31
2023-03-06T20:45:16.416Z,99366.41
2023-03-06T20:47:50.698Z,99366.56
2023-03-06T20:50:17.269Z,99363.91
2023-03-06T20:52:43.608Z,99366.28
2023-03-06T20:55:10.262Z,99364.41
2023-03-06T20:57:36.618Z,99368.50
2023-03-06T21:00:04.865Z,99364.59
2023-03-06T21:02:31.276Z,99360.19
2023-03-06T21:04:59.876Z,99366.31
2023-03-06T21:07:26.553Z,99355.00
2023-03-06T21:09:52.947Z,99355.13
2023-03-06T21:12:19.296Z,99358.69
2023-03-06T21:14:45.586Z,99348.56
2023-03-06T21:17:13.801Z,99347.72
2023-03-06T21:19:41.406Z,99346.59
2023-03-06T21:22:07.963Z,99352.06
2023-03-06T21:24:35.240Z,99339.47
2023-03-06T21:27:01.650Z,99333.94
2023-03-06T21:29:27.980Z,99335.41
2023-03-06T21:31:54.333Z,99333.84
2023-03-06T21:34:20.682Z,99338.22
2023-03-06T21:36:47.143Z,99333.75
2023-03-06T21:39:13.856Z,99335.56
2023-03-06T21:41:40.812Z,99333.59
2023-03-06T21:44:07.627Z,99334.59
2023-03-06T21:46:34.768Z,99334.59
2023-03-06T21:49:04.372Z,99336.72
2023-03-06T21:51:31.209Z,99330.94
2023-03-06T21:53:58.812Z,99324.84
2023-03-06T21:56:28.303Z,99317.31
2023-03-06T21:58:55.492Z,99327.66
2023-03-06T22:01:24.683Z,99312.25
2023-03-06T22:03:51.430Z,99317.06
2023-03-06T22:06:19.907Z,99309.97
2023-03-06T22:08:46.480Z,99312.66
2023-03-06T22:11:18.708Z,99306.81
2023-03-06T22:13:45.942Z,99311.53
2023-03-06T22:16:18.354Z,99311.34
2023-03-06T22:18:46.194Z,99307.34
2023-03-06T22:21:14.882Z,99310.97
2023-03-06T22:23:41.489Z,99307.66
2023-03-06T22:26:11.131Z,99305.22
2023-03-06T22:28:37.531Z,99292.91
2023-03-06T22:31:07.808Z,99293.09
2023-03-06T22:33:34.329Z,99292.34
2023-03-06T22:36:07.450Z,99294.00
2023-03-06T22:38:35.742Z,99295.03
2023-03-06T22:41:02.132Z,99291.75
2023-03-06T22:43:28.456Z,99287.44
2023-03-06T22:45:54.877Z,99284.81
2023-03-06T22:48:21.476Z,99288.19
2023-03-06T22:50:47.830Z,99279.59
2023-03-06T22:53:14.225Z,99282.13
2023-03-06T22:55:40.538Z,99281.25
2023-03-06T22:58:06.929Z,99281.97
2023-03-06T23:00:33.296Z,99275.94
2023-03-06T23:02:59.594Z,99275.84
2023-03-06T23:05:27.905Z,99273.50
2023-03-06T23:07:55.672Z,99267.25
2023-03-06T23:10:21.992Z,99263.88
2023-03-06T23:12:48.318Z,99265.66
2023-03-06T23:15:14.723Z,99264.78
2023-03-06T23:17:41.009Z,99263.25
2023-03-06T23:20:09.955Z,99260.75
2023-03-06T23:22:36.269Z,99257.22
2023-03-06T23:25:02.613Z,99262.44
2023-03-06T23:27:29.299Z,99264.16
2023-03-06T23:29:58.761Z,99262.63
2023-03-06T23:32:25.281Z,99254.81
2023-03-06T23:34:51.680Z,99248.69
2023-03-06T23:37:18.015Z,99260.91
2023-03-06T23:39:44.345Z,99252.38
2023-03-06T23:42:10.985Z,99249.81
2023-03-06T23:44:37.356Z,99247.31
2023-03-06T23:47:03.729Z,99249.09
2023-03-06T23:49:30.058Z,99251.81
2023-03-06T23:51:56.362Z,99249.19
2023-03-06T23:54:22.660Z,99245.75
2023-03-06T23:56:48.987Z,99231.00
2023-03-06T23:59:15.336Z,99229.56
